createdAt,value
2018-07-17T00:01:05.858Z,18.89
2018-07-17T00:03:34.706Z,18.87
2018-07-17T00:06:03.750Z,18.91
2018-07-17T00:08:32.744Z,18.90
2018-07-17T00:11:01.662Z,18.90
2018-07-17T00:13:30.464Z,18.89
2018-07-17T00:15:59.396Z,18.93
2018-07-17T00:18:28.251Z,18.91
2018-07-17T00:20:57.141Z,18.89
2018-07-17T00:23:26.191Z,18.88
2018-07-17T00:25:55.190Z,18.89
2018-07-17T00:28:24.093Z,18.90
2018-07-17T00:30:53.088Z,18.91
2018-07-17T00:33:22.138Z,18.82
2018-07-17T00:35:51.215Z,18.80
2018-07-17T00:38:20.181Z,18.76
2018-07-17T00:40:49.241Z,18.68
2018-07-17T00:43:18.167Z,18.61
2018-07-17T00:45:47.078Z,18.58
2018-07-17T00:48:16.109Z,18.56
2018-07-17T00:50:45.176Z,18.46
2018-07-17T00:53:14.398Z,18.42
2018-07-17T00:55:43.547Z,18.42
2018-07-17T00:58:12.587Z,18.13
2018-07-17T01:00:44.571Z,18.21
2018-07-17T01:03:18.930Z,18.27
2018-07-17T01:05:53.274Z,18.29
2018-07-17T01:08:27.393Z,18.26
2018-07-17T01:11:01.651Z,18.23
2018-07-17T01:13:39.205Z,18.22
2018-07-17T01:16:08.289Z,18.14
2018-07-17T01:18:37.417Z,18.15
2018-07-17T01:21:06.586Z,18.17
2018-07-17T01:23:35.706Z,18.11
2018-07-17T01:26:04.778Z,18.05
2018-07-17T01:28:33.652Z,17.98
2018-07-17T01:31:02.549Z,17.91
2018-07-17T01:33:31.531Z,17.84
2018-07-17T01:36:00.978Z,17.72
2018-07-17T01:38:29.982Z,17.74
2018-07-17T01:40:59.130Z,17.83
2018-07-17T01:43:28.198Z,17.75
2018-07-17T01:45:57.121Z,17.70
2018-07-17T01:48:26.028Z,17.70
2018-07-17T01:50:55.209Z,17.65
2018-07-17T01:53:24.123Z,17.57
2018-07-17T01:55:53.189Z,17.48
2018-07-17T01:58:22.262Z,17.54
2018-07-17T02:00:51.591Z,17.54
2018-07-17T02:03:20.953Z,17.50
2018-07-17T02:05:50.354Z,17.41
2018-07-17T02:08:19.577Z,17.40
2018-07-17T02:10:48.836Z,17.40
2018-07-17T02:13:18.015Z,17.44
2018-07-17T02:15:47.056Z,17.36
2018-07-17T02:18:16.058Z,17.35
2018-07-17T02:20:45.762Z,17.36
2018-07-17T02:23:15.170Z,17.27
2018-07-17T02:25:44.525Z,17.29
2018-07-17T02:28:13.621Z,17.24
2018-07-17T02:30:42.794Z,17.17
2018-07-17T02:33:12.046Z,17.16
2018-07-17T02:35:41.133Z,17.20
2018-07-17T02:38:10.149Z,17.22
2018-07-17T02:40:39.101Z,17.19
2018-07-17T02:43:08.061Z,17.21
2018-07-17T02:45:37.230Z,17.18
2018-07-17T02:48:06.115Z,17.18
2018-07-17T02:50:35.182Z,17.18
2018-07-17T02:53:04.142Z,17.11
2018-07-17T02:55:33.217Z,17.18
2018-07-17T02:58:02.193Z,17.19
2018-07-17T03:00:31.217Z,17.20
2018-07-17T03:03:00.085Z,17.22
2018-07-17T03:05:28.998Z,17.19
2018-07-17T03:07:58.070Z,17.20
2018-07-17T03:10:27.041Z,17.25
2018-07-17T03:12:56.007Z,17.23
2018-07-17T03:15:25.697Z,17.21
2018-07-17T03:17:54.673Z,17.23
2018-07-17T03:20:23.590Z,17.16
2018-07-17T03:22:52.564Z,17.13
2018-07-17T03:25:21.491Z,17.10
2018-07-17T03:27:50.753Z,17.10
2018-07-17T03:30:19.830Z,17.11
2018-07-17T03:32:48.919Z,17.07
2018-07-17T03:35:18.043Z,17.00
2018-07-17T03:37:47.018Z,16.95
2018-07-17T03:40:16.084Z,16.88
2018-07-17T03:42:52.457Z,16.82
2018-07-17T03:45:21.590Z,16.88
2018-07-17T03:47:50.502Z,16.76
2018-07-17T03:50:19.621Z,16.81
2018-07-17T03:52:48.715Z,16.73
2018-07-17T03:55:18.188Z,16.78
2018-07-17T03:57:47.532Z,16.75
2018-07-17T04:00:16.883Z,16.79
2018-07-17T04:02:46.049Z,16.89
2018-07-17T04:05:15.222Z,16.93
2018-07-17T04:07:44.430Z,16.75
2018-07-17T04:10:13.859Z,16.83
2018-07-17T04:12:43.257Z,16.84
2018-07-17T04:15:12.417Z,16.89
2018-07-17T04:17:41.489Z,16.90
2018-07-17T04:20:10.760Z,16.95
2018-07-17T04:22:40.105Z,16.96
2018-07-17T04:25:09.382Z,16.95
2018-07-17T04:27:38.553Z,16.95
2018-07-17T04:30:07.644Z,16.91
2018-07-17T04:32:36.648Z,16.97
2018-07-17T04:35:05.704Z,16.99
2018-07-17T04:37:34.855Z,17.06
2018-07-17T04:40:04.180Z,17.11
2018-07-17T04:42:33.203Z,17.12
2018-07-17T04:45:02.752Z,17.11
2018-07-17T04:47:32.110Z,17.11
2018-07-17T04:50:01.184Z,17.13
2018-07-17T04:52:30.280Z,17.14
2018-07-17T04:54:59.245Z,17.21
2018-07-17T04:57:28.168Z,17.22
2018-07-17T04:59:57.305Z,17.28
2018-07-17T05:02:26.314Z,17.34
2018-07-17T05:04:55.753Z,17.41
2018-07-17T05:07:24.859Z,17.47
2018-07-17T05:09:54.036Z,17.53
2018-07-17T05:12:23.070Z,17.59
2018-07-17T05:14:52.249Z,17.61
2018-07-17T05:17:21.734Z,17.62
2018-07-17T05:19:50.803Z,17.67
2018-07-17T05:22:19.949Z,17.72
2018-07-17T05:24:49.170Z,17.75
2018-07-17T05:27:18.394Z,17.83
2018-07-17T05:29:47.423Z,17.91
2018-07-17T05:32:16.542Z,17.97
2018-07-17T05:34:45.878Z,18.05
2018-07-17T05:37:15.189Z,17.95
2018-07-17T05:39:44.556Z,17.97
2018-07-17T05:42:13.765Z,17.85
2018-07-17T05:44:42.842Z,18.06
2018-07-17T05:47:12.021Z,18.16
2018-07-17T05:49:41.216Z,18.20
2018-07-17T05:52:10.509Z,18.25
2018-07-17T05:54:39.591Z,18.41
2018-07-17T05:57:08.950Z,18.45
2018-07-17T05:59:37.900Z,18.53
2018-07-17T06:02:08.197Z,18.64
2018-07-17T06:04:37.484Z,18.70
2018-07-17T06:07:06.641Z,18.82
2018-07-17T06:09:35.688Z,18.88
2018-07-17T06:12:04.862Z,18.98
2018-07-17T06:14:34.175Z,19.05
2018-07-17T06:17:03.352Z,19.08
2018-07-17T06:19:32.569Z,19.20
2018-07-17T06:22:01.759Z,19.29
2018-07-17T06:24:31.021Z,19.37
2018-07-17T06:27:00.129Z,19.43
2018-07-17T06:29:29.261Z,19.54
2018-07-17T06:31:58.592Z,19.65
2018-07-17T06:34:27.653Z,19.77
2018-07-17T06:36:56.874Z,19.58
2018-07-17T06:39:26.072Z,19.80
2018-07-17T06:41:54.922Z,20.10
2018-07-17T06:44:23.949Z,19.97
2018-07-17T06:46:53.370Z,19.91
2018-07-17T06:49:22.617Z,19.99
2018-07-17T06:51:51.609Z,20.24
2018-07-17T06:54:20.885Z,20.39
2018-07-17T06:56:50.040Z,20.36
2018-07-17T06:59:19.058Z,20.21
2018-07-17T07:01:48.165Z,20.41
2018-07-17T07:04:17.085Z,20.62
2018-07-17T07:06:46.111Z,20.77
2018-07-17T07:09:15.146Z,20.99
2018-07-17T07:11:44.513Z,21.09
2018-07-17T07:14:13.729Z,20.92
2018-07-17T07:16:42.761Z,20.87
2018-07-17T07:19:11.730Z,21.16
2018-07-17T07:21:41.141Z,21.39
2018-07-17T07:24:10.596Z,21.18
2018-07-17T07:26:39.657Z,21.47
2018-07-17T07:29:08.662Z,21.70
2018-07-17T07:31:37.814Z,21.80
2018-07-17T07:34:06.766Z,21.88
2018-07-17T07:36:35.704Z,21.83
2018-07-17T07:39:06.387Z,21.94
2018-07-17T07:41:35.567Z,21.99
2018-07-17T07:44:04.787Z,22.18
2018-07-17T07:46:34.387Z,22.25
2018-07-17T07:49:03.719Z,22.39
2018-07-17T07:51:32.914Z,22.39
2018-07-17T07:54:02.102Z,22.41
2018-07-17T07:56:31.206Z,22.60
2018-07-17T07:59:00.171Z,22.60
2018-07-17T08:01:29.155Z,22.77
2018-07-17T08:03:58.333Z,22.83
2018-07-17T08:06:27.646Z,22.97
2018-07-17T08:08:56.918Z,22.87
2018-07-17T08:11:26.090Z,22.98
2018-07-17T08:13:55.174Z,23.15
2018-07-17T08:16:24.142Z,23.25
2018-07-17T08:18:53.154Z,23.32
2018-07-17T08:21:21.944Z,23.46
2018-07-17T08:23:50.796Z,23.52
2018-07-17T08:26:19.717Z,23.60
2018-07-17T08:28:48.634Z,23.77
2018-07-17T08:31:17.561Z,23.88
2018-07-17T08:33:46.526Z,23.97
2018-07-17T08:36:15.559Z,24.17
2018-07-17T08:38:44.442Z,24.34
2018-07-17T08:41:13.507Z,24.27
2018-07-17T08:43:43.053Z,24.43
2018-07-17T08:46:12.034Z,24.43
2018-07-17T08:48:41.201Z,24.65
2018-07-17T08:51:10.018Z,24.85
2018-07-17T08:53:39.012Z,24.87
2018-07-17T08:56:07.962Z,25.01
2018-07-17T08:58:37.051Z,25.07
2018-07-17T09:01:05.830Z,24.98
2018-07-17T09:03:34.589Z,24.92
2018-07-17T09:06:03.559Z,25.13
2018-07-17T09:08:32.490Z,25.31
2018-07-17T09:11:01.448Z,25.23
2018-07-17T09:13:30.253Z,25.41
2018-07-17T09:15:59.246Z,25.44
2018-07-17T09:18:28.489Z,25.32
2018-07-17T09:20:57.337Z,25.49
2018-07-17T09:23:26.554Z,25.69
2018-07-17T09:25:56.178Z,25.77
2018-07-17T09:28:25.000Z,25.83
2018-07-17T09:31:00.532Z,25.95
2018-07-17T09:33:38.599Z,26.11
2018-07-17T09:36:08.652Z,26.28
2018-07-17T09:38:39.354Z,26.43
2018-07-17T09:41:08.550Z,26.48
2018-07-17T09:43:37.271Z,26.76
2018-07-17T09:46:06.229Z,26.61
2018-07-17T09:48:35.044Z,26.79
2018-07-17T09:51:03.809Z,26.57
2018-07-17T09:53:32.711Z,26.83
2018-07-17T09:56:02.380Z,27.06
2018-07-17T09:58:31.738Z,27.41
2018-07-17T10:01:05.758Z,27.41
2018-07-17T10:03:34.753Z,26.98
2018-07-17T10:06:03.780Z,27.24
2018-07-17T10:08:32.461Z,27.23
2018-07-17T10:11:01.206Z,27.28
2018-07-17T10:13:30.455Z,27.49
2018-07-17T10:15:59.345Z,27.36
2018-07-17T10:18:29.782Z,27.58
2018-07-17T10:20:58.622Z,27.43
2018-07-17T10:23:27.997Z,27.43
2018-07-17T10:25:57.091Z,27.75
2018-07-17T10:28:25.889Z,27.93
2018-07-17T10:30:54.822Z,28.17
2018-07-17T10:33:23.706Z,28.07
2018-07-17T10:35:52.518Z,27.91
2018-07-17T10:38:21.534Z,27.83
2018-07-17T10:40:51.502Z,27.96
2018-07-17T10:43:20.551Z,27.71
2018-07-17T10:45:49.477Z,27.86
2018-07-17T10:48:18.816Z,27.79
2018-07-17T10:50:47.733Z,27.68
2018-07-17T10:53:16.761Z,27.89
2018-07-17T10:55:45.578Z,27.86
2018-07-17T10:58:14.482Z,27.78
2018-07-17T11:00:43.292Z,27.93
2018-07-17T11:03:12.166Z,28.09
2018-07-17T11:05:41.071Z,27.88
2018-07-17T11:08:10.141Z,27.80
2018-07-17T11:10:38.895Z,27.81
2018-07-17T11:13:08.090Z,27.62
2018-07-17T11:15:37.456Z,27.47
2018-07-17T11:18:06.492Z,27.60
2018-07-17T11:20:35.301Z,27.89
2018-07-17T11:23:04.200Z,28.21
2018-07-17T11:25:33.300Z,28.34
2018-07-17T11:28:02.419Z,28.63
2018-07-17T11:30:31.471Z,28.75
2018-07-17T11:33:00.346Z,28.47
2018-07-17T11:35:29.339Z,28.46
2018-07-17T11:37:58.140Z,28.20
2018-07-17T11:40:27.034Z,27.93
2018-07-17T11:42:55.937Z,28.04
2018-07-17T11:45:24.672Z,27.86
2018-07-17T11:47:53.589Z,27.83
2018-07-17T11:50:22.360Z,28.29
2018-07-17T11:52:51.181Z,29.12
2018-07-17T11:55:20.099Z,29.52
2018-07-17T11:57:49.041Z,29.91
2018-07-17T12:00:19.815Z,29.84
2018-07-17T12:02:48.590Z,29.68
2018-07-17T12:05:17.736Z,29.99
2018-07-17T12:07:46.482Z,30.98
2018-07-17T12:10:15.487Z,30.35
2018-07-17T12:12:44.374Z,30.60
2018-07-17T12:15:13.122Z,31.15
2018-07-17T12:17:42.275Z,31.20
2018-07-17T12:20:11.395Z,30.67
2018-07-17T12:22:40.634Z,31.33
2018-07-17T12:25:09.629Z,31.60
2018-07-17T12:27:38.378Z,32.55
2018-07-17T12:30:07.723Z,31.86
2018-07-17T12:32:38.524Z,32.99
2018-07-17T12:35:09.193Z,34.28
2018-07-17T12:37:38.287Z,32.85
2018-07-17T12:40:08.067Z,33.50
2018-07-17T12:42:37.322Z,33.24
2018-07-17T12:45:06.466Z,32.24
2018-07-17T12:47:35.382Z,32.85
2018-07-17T12:50:04.929Z,32.56
2018-07-17T12:52:33.789Z,33.75
2018-07-17T12:55:03.110Z,32.94
2018-07-17T12:57:32.403Z,34.65
2018-07-17T13:00:02.051Z,35.80
2018-07-17T13:02:31.113Z,36.13
2018-07-17T13:05:00.190Z,33.24
2018-07-17T13:07:36.146Z,33.61
2018-07-17T13:10:06.564Z,33.40
2018-07-17T13:12:35.434Z,34.63
2018-07-17T13:15:04.712Z,35.41
2018-07-17T13:17:34.508Z,36.10
2018-07-17T13:20:03.990Z,36.36
2018-07-17T13:22:33.098Z,37.14
2018-07-17T13:25:02.105Z,36.94
2018-07-17T13:27:31.175Z,34.57
2018-07-17T13:29:59.971Z,36.04
2018-07-17T13:32:28.926Z,34.94
2018-07-17T13:34:57.874Z,34.82
2018-07-17T13:37:26.735Z,35.36
2018-07-17T13:39:55.501Z,35.05
2018-07-17T13:42:24.395Z,35.91
2018-07-17T13:44:53.439Z,36.48
2018-07-17T13:47:22.159Z,36.23
2018-07-17T13:49:51.189Z,35.48
2018-07-17T13:52:20.310Z,34.45
2018-07-17T13:54:49.504Z,35.16
2018-07-17T13:57:18.374Z,35.86
2018-07-17T13:59:47.338Z,35.60
2018-07-17T14:02:16.205Z,37.17
2018-07-17T14:04:45.055Z,37.48
2018-07-17T14:07:13.946Z,34.34
2018-07-17T14:09:42.901Z,33.19
2018-07-17T14:12:11.718Z,33.39
2018-07-17T14:14:40.798Z,32.59
2018-07-17T14:17:09.642Z,32.21
2018-07-17T14:19:38.747Z,30.96
2018-07-17T14:22:07.689Z,30.92
2018-07-17T14:24:36.503Z,31.48
2018-07-17T14:27:05.578Z,31.14
2018-07-17T14:29:34.680Z,31.05
2018-07-17T14:32:03.794Z,30.69
2018-07-17T14:34:32.802Z,30.17
2018-07-17T14:37:01.788Z,30.35
2018-07-17T14:39:30.832Z,30.35
2018-07-17T14:41:59.744Z,30.27
2018-07-17T14:44:28.747Z,30.40
2018-07-17T14:46:57.567Z,30.38
2018-07-17T14:49:26.445Z,30.25
2018-07-17T14:51:55.354Z,30.83
2018-07-17T14:54:24.215Z,30.40
2018-07-17T14:56:53.093Z,30.54
2018-07-17T14:59:22.060Z,30.82
2018-07-17T15:01:51.085Z,30.63
2018-07-17T15:04:19.853Z,30.54
2018-07-17T15:06:48.923Z,30.17
2018-07-17T15:09:17.666Z,30.08
2018-07-17T15:11:46.484Z,30.56
2018-07-17T15:14:15.438Z,30.64
2018-07-17T15:16:44.270Z,31.34
2018-07-17T15:19:13.193Z,31.48
2018-07-17T15:21:41.981Z,31.26
2018-07-17T15:24:11.195Z,31.13
2018-07-17T15:26:40.417Z,30.83
2018-07-17T15:29:09.102Z,31.06
2018-07-17T15:31:38.095Z,30.92
2018-07-17T15:34:07.185Z,30.47
2018-07-17T15:36:36.260Z,30.40
2018-07-17T15:39:08.190Z,30.47
2018-07-17T15:41:36.955Z,30.26
2018-07-17T15:44:05.941Z,30.50
2018-07-17T15:46:35.910Z,31.30
2018-07-17T15:49:04.722Z,31.40
2018-07-17T15:51:33.439Z,31.68
2018-07-17T15:54:02.728Z,31.32
2018-07-17T15:56:31.527Z,31.35
2018-07-17T15:59:00.335Z,31.16
2018-07-17T16:01:29.315Z,30.87
2018-07-17T16:03:58.197Z,31.34
2018-07-17T16:06:27.024Z,31.61
2018-07-17T16:08:55.870Z,31.71
2018-07-17T16:11:24.811Z,32.24
2018-07-17T16:13:53.929Z,32.22
2018-07-17T16:16:22.672Z,31.63
2018-07-17T16:18:51.644Z,31.26
2018-07-17T16:21:20.564Z,31.10
2018-07-17T16:23:49.509Z,31.06
2018-07-17T16:26:18.603Z,30.85
2018-07-17T16:28:47.666Z,30.90
2018-07-17T16:31:16.761Z,30.72
2018-07-17T16:33:45.589Z,30.59
2018-07-17T16:36:14.634Z,30.43
2018-07-17T16:38:43.710Z,30.09
2018-07-17T16:41:12.874Z,30.11
2018-07-17T16:43:42.007Z,30.03
2018-07-17T16:46:10.797Z,29.85
2018-07-17T16:48:39.985Z,29.90
2018-07-17T16:51:08.895Z,29.73
2018-07-17T16:53:37.808Z,29.70
2018-07-17T16:56:06.981Z,29.46
2018-07-17T16:58:35.766Z,29.34
2018-07-17T17:01:04.797Z,29.23
2018-07-17T17:03:33.771Z,29.16
2018-07-17T17:06:03.003Z,29.03
2018-07-17T17:08:31.936Z,29.17
2018-07-17T17:11:01.004Z,29.16
2018-07-17T17:13:29.864Z,29.02
2018-07-17T17:15:58.838Z,29.13
2018-07-17T17:18:28.111Z,29.03
2018-07-17T17:20:56.971Z,29.10
2018-07-17T17:23:25.765Z,29.12
2018-07-17T17:25:54.676Z,29.23
2018-07-17T17:28:23.547Z,29.12
2018-07-17T17:30:52.366Z,29.22
2018-07-17T17:33:21.068Z,29.11
2018-07-17T17:35:49.976Z,29.10
2018-07-17T17:38:18.730Z,28.91
2018-07-17T17:40:47.613Z,28.78
2018-07-17T17:43:16.711Z,28.68
2018-07-17T17:45:45.484Z,28.62
2018-07-17T17:48:14.472Z,28.52
2018-07-17T17:50:43.532Z,28.44
2018-07-17T17:53:12.233Z,28.34
2018-07-17T17:55:41.470Z,28.29
2018-07-17T17:58:10.561Z,27.83
2018-07-17T18:00:39.552Z,27.74
2018-07-17T18:03:08.394Z,27.87
2018-07-17T18:05:37.329Z,28.18
2018-07-17T18:08:06.232Z,28.51
2018-07-17T18:10:34.995Z,28.64
2018-07-17T18:13:03.956Z,28.69
2018-07-17T18:15:32.862Z,28.41
2018-07-17T18:18:02.019Z,28.13
2018-07-17T18:20:31.316Z,28.16
2018-07-17T18:23:00.185Z,28.26
2018-07-17T18:25:29.056Z,28.13
2018-07-17T18:27:57.881Z,28.05
2018-07-17T18:30:26.678Z,27.66
2018-07-17T18:32:55.671Z,27.55
2018-07-17T18:35:24.449Z,27.26
2018-07-17T18:37:53.297Z,27.22
2018-07-17T18:40:22.090Z,27.02
2018-07-17T18:42:50.782Z,26.87
2018-07-17T18:45:19.940Z,26.87
2018-07-17T18:47:48.966Z,26.60
2018-07-17T18:50:17.659Z,26.55
2018-07-17T18:52:46.517Z,26.47
2018-07-17T18:55:15.264Z,26.46
2018-07-17T18:57:44.060Z,26.39
2018-07-17T19:00:13.132Z,26.32
2018-07-17T19:02:42.056Z,26.17
2018-07-17T19:05:10.974Z,26.31
2018-07-17T19:07:39.767Z,26.21
2018-07-17T19:10:08.757Z,26.15
2018-07-17T19:12:37.514Z,26.11
2018-07-17T19:15:06.599Z,26.00
2018-07-17T19:17:35.571Z,25.89
2018-07-17T19:20:04.896Z,25.78
2018-07-17T19:22:34.312Z,25.62
2018-07-17T19:25:03.409Z,25.64
2018-07-17T19:27:32.239Z,25.65
2018-07-17T19:30:01.191Z,25.60
2018-07-17T19:32:30.079Z,25.60
2018-07-17T19:34:59.079Z,25.47
2018-07-17T19:37:27.973Z,25.57
2018-07-17T19:39:56.848Z,25.44
2018-07-17T19:42:25.571Z,25.37
2018-07-17T19:44:54.353Z,25.32
2018-07-17T19:47:23.268Z,25.32
2018-07-17T19:49:52.213Z,25.26
2018-07-17T19:52:21.090Z,25.27
2018-07-17T19:54:50.375Z,25.33
2018-07-17T19:57:19.267Z,25.32
2018-07-17T19:59:48.558Z,25.22
2018-07-17T20:02:17.610Z,25.15
2018-07-17T20:04:46.781Z,25.12
2018-07-17T20:07:15.887Z,25.16
2018-07-17T20:09:44.878Z,25.07
2018-07-17T20:12:13.790Z,25.11
2018-07-17T20:14:42.531Z,25.12
2018-07-17T20:17:11.881Z,25.08
2018-07-17T20:19:40.997Z,25.08
2018-07-17T20:22:09.968Z,25.02
2018-07-17T20:24:39.001Z,25.06
2018-07-17T20:27:07.876Z,25.02
2018-07-17T20:29:36.977Z,24.98
2018-07-17T20:32:06.426Z,25.01
2018-07-17T20:34:35.273Z,24.96
2018-07-17T20:37:04.234Z,24.99
2018-07-17T20:39:34.264Z,24.96
2018-07-17T20:42:03.563Z,24.98
2018-07-17T20:44:32.342Z,24.92
2018-07-17T20:47:01.202Z,24.87
2018-07-17T20:49:30.231Z,24.86
2018-07-17T20:51:59.101Z,24.79
2018-07-17T20:54:28.365Z,24.76
2018-07-17T20:56:57.234Z,24.71
2018-07-17T20:59:26.278Z,24.62
2018-07-17T21:01:55.207Z,24.61
2018-07-17T21:04:24.014Z,24.60
2018-07-17T21:06:52.979Z,24.59
2018-07-17T21:09:21.759Z,24.52
2018-07-17T21:11:50.772Z,24.43
2018-07-17T21:14:19.741Z,24.37
2018-07-17T21:16:48.727Z,24.35
2018-07-17T21:19:17.947Z,24.36
2018-07-17T21:21:46.914Z,24.35
2018-07-17T21:24:15.725Z,24.26
2018-07-17T21:26:44.561Z,24.26
2018-07-17T21:29:13.378Z,24.22
2018-07-17T21:31:42.194Z,24.30
2018-07-17T21:34:10.966Z,24.22
2018-07-17T21:36:40.148Z,24.09
2018-07-17T21:39:10.406Z,24.01
2018-07-17T21:41:39.476Z,24.00
2018-07-17T21:44:08.544Z,23.97
2018-07-17T21:46:37.486Z,23.88
2018-07-17T21:49:06.696Z,23.91
2018-07-17T21:51:35.805Z,23.82
2018-07-17T21:54:05.002Z,23.92
2018-07-17T21:56:33.858Z,23.74
2018-07-17T21:59:02.576Z,23.76
2018-07-17T22:01:31.454Z,23.56
2018-07-17T22:04:00.496Z,23.50
2018-07-17T22:06:29.354Z,23.47
2018-07-17T22:08:58.126Z,23.63
2018-07-17T22:11:26.935Z,23.43
2018-07-17T22:13:55.793Z,23.39
2018-07-17T22:16:24.911Z,23.41
2018-07-17T22:18:54.177Z,23.28
2018-07-17T22:21:23.305Z,23.29
2018-07-17T22:23:52.341Z,23.32
2018-07-17T22:26:21.066Z,23.27
2018-07-17T22:28:50.086Z,23.24
2018-07-17T22:31:18.915Z,23.13
2018-07-17T22:33:48.186Z,23.15
2018-07-17T22:36:17.246Z,23.30
2018-07-17T22:38:46.468Z,23.22
2018-07-17T22:41:15.371Z,23.13
2018-07-17T22:43:44.071Z,23.17
2018-07-17T22:46:12.893Z,23.05
2018-07-17T22:48:41.586Z,23.07
2018-07-17T22:51:10.539Z,22.96
2018-07-17T22:53:39.488Z,22.92
2018-07-17T22:56:08.223Z,22.90
2018-07-17T22:58:36.921Z,23.08
2018-07-17T23:01:05.716Z,22.95
2018-07-17T23:03:34.482Z,22.96
2018-07-17T23:06:03.777Z,22.94
2018-07-17T23:08:32.788Z,22.92
2018-07-17T23:11:02.121Z,22.89
2018-07-17T23:13:31.110Z,22.75
2018-07-17T23:16:00.044Z,22.69
2018-07-17T23:18:28.884Z,22.70
2018-07-17T23:20:57.941Z,22.58
2018-07-17T23:23:26.929Z,22.54
2018-07-17T23:25:55.767Z,22.55
2018-07-17T23:28:24.686Z,22.71
2018-07-17T23:30:53.599Z,22.73
2018-07-17T23:33:22.419Z,22.81
2018-07-17T23:35:51.487Z,22.81
2018-07-17T23:38:20.234Z,22.71
2018-07-17T23:40:49.017Z,22.91
2018-07-17T23:43:17.787Z,22.63
2018-07-17T23:45:46.669Z,22.52
2018-07-17T23:48:15.581Z,22.48
2018-07-17T23:50:44.451Z,22.48
2018-07-17T23:53:13.302Z,22.60
2018-07-17T23:55:42.293Z,22.65
2018-07-17T23:58:11.208Z,22.58
